PWSweather.com
Personal Weather Stations
Station Observations
KPASPRIN10
East Vincent, East Vincent, PA 19475

East VincentEast Vincent, PA 19475

Lat: 40.170948, Lon: -75.629681

Elevation: 404

Station Type: Davis VP2

http://www.evweather.com

High Low Average
Temperature 47.2°F8.4°C 26.1°F-3.3°C 35.8°F2.1°C
Dew Point 23.7°F-4.6°C 12.6°F-10.8°C 18.2°F-7.7°C
Winds 16.1 mph 25.9 kmh Calm Calm 7.0 mph W11.3 kmh W
Wind Gusts 26.5 mph42.6 kmh -- 10.0 mph16.1 kmh
Humidity 66% 36% 49%
Pressure 29.98 in1015.2 mb 29.73 in1006.8 mb -
Precipitation 0.00 in0.0 mm - -
Hour Temp Dew Point Humidity Winds Wind Gusts Pressure Precip Precip Rate Daily Precip Total
12:00 AM 29.9°F-1.2°C 17.3°F-8.2°C 59% 5.8 mph W9.3 kmh W 6.9 mph11.1 kmh 29.98 in1015.2 mb - 0.00 in0.0 mm 0.00 in0.0 mm
12:10 AM 29.8°F-1.2°C 16.8°F-8.4°C 58% 5.8 mph WNW9.3 kmh WNW 8.1 mph13.0 kmh 29.98 in1015.2 mb - 0.00 in0.0 mm 0.00 in0.0 mm
12:20 AM 29.6°F-1.3°C 17.0°F-8.3°C 59% 5.8 mph NW9.3 kmh NW 8.1 mph13.0 kmh 29.98 in1015.2 mb - 0.00 in0.0 mm 0.00 in0.0 mm
12:30 AM 29.4°F-1.4°C 16.8°F-8.4°C 59% 5.8 mph NW9.3 kmh NW 8.1 mph13.0 kmh 29.98 in1015.2 mb - 0.00 in0.0 mm 0.00 in0.0 mm
12:40 AM 29.4°F-1.4°C 16.8°F-8.4°C 59% 6.9 mph WNW11.1 kmh WNW 10.4 mph16.7 kmh 29.98 in1015.2 mb - 0.00 in0.0 mm 0.00 in0.0 mm
12:50 AM 29.3°F-1.5°C 16.7°F-8.5°C 59% 6.9 mph NW11.1 kmh NW 12.7 mph20.4 kmh 29.98 in1015.2 mb - 0.00 in0.0 mm 0.00 in0.0 mm
01:00 AM 29.2°F-1.6°C 17.1°F-8.3°C 60% 5.8 mph WNW9.3 kmh WNW 9.2 mph14.8 kmh 29.98 in1015.2 mb - 0.00 in0.0 mm 0.00 in0.0 mm
01:10 AM 29.2°F-1.6°C 16.6°F-8.6°C 59% 3.5 mph W5.6 kmh W 8.1 mph13.0 kmh 29.98 in1015.2 mb - 0.00 in0.0 mm 0.00 in0.0 mm
01:20 AM 29.1°F-1.6°C 16.5°F-8.6°C 59% 4.6 mph WNW7.4 kmh WNW 3.5 mph5.6 kmh 29.98 in1015.2 mb - 0.00 in0.0 mm 0.00 in0.0 mm
01:30 AM 29.0°F-1.7°C 16.4°F-8.7°C 59% 4.6 mph NW7.4 kmh NW 8.1 mph13.0 kmh 29.98 in1015.2 mb - 0.00 in0.0 mm 0.00 in0.0 mm
01:40 AM 28.9°F-1.7°C 16.7°F-8.5°C 60% 8.1 mph W13.0 kmh W 13.8 mph22.2 kmh 29.98 in1015.2 mb - 0.00 in0.0 mm 0.00 in0.0 mm
01:50 AM 28.8°F-1.8°C 17.0°F-8.3°C 61% 5.8 mph W9.3 kmh W 10.4 mph16.7 kmh 29.98 in1015.2 mb - 0.00 in0.0 mm 0.00 in0.0 mm
02:00 AM 28.6°F-1.9°C 16.8°F-8.4°C 61% 8.1 mph W13.0 kmh W 8.1 mph13.0 kmh 29.98 in1015.2 mb - 0.00 in0.0 mm 0.00 in0.0 mm
02:10 AM 28.5°F-1.9°C 16.7°F-8.5°C 61% 8.1 mph W13.0 kmh W 10.4 mph16.7 kmh 29.98 in1015.2 mb - 0.00 in0.0 mm 0.00 in0.0 mm
02:20 AM 28.4°F-2.0°C 16.7°F-8.5°C 61% 9.2 mph WNW14.8 kmh WNW 12.7 mph20.4 kmh 29.98 in1015.2 mb - 0.00 in0.0 mm 0.00 in0.0 mm
02:30 AM 28.5°F-1.9°C 16.0°F-8.9°C 59% 9.2 mph WNW14.8 kmh WNW 12.7 mph20.4 kmh 29.98 in1015.2 mb - 0.00 in0.0 mm 0.00 in0.0 mm
02:40 AM 28.5°F-1.9°C 15.6°F-9.1°C 58% 12.7 mph NW20.4 kmh NW 18.4 mph29.6 kmh 29.98 in1015.2 mb - 0.00 in0.0 mm 0.00 in0.0 mm
02:50 AM 28.7°F-1.8°C 15.4°F-9.2°C 57% 11.5 mph WNW18.5 kmh WNW 15.0 mph24.1 kmh 29.98 in1015.2 mb - 0.00 in0.0 mm 0.00 in0.0 mm
03:00 AM 28.8°F-1.8°C 15.1°F-9.4°C 56% 6.9 mph WNW11.1 kmh WNW 12.7 mph20.4 kmh 29.98 in1015.2 mb - 0.00 in0.0 mm 0.00 in0.0 mm
03:10 AM 28.7°F-1.8°C 15.0°F-9.4°C 56% 8.1 mph WNW13.0 kmh WNW 8.1 mph13.0 kmh 29.98 in1015.2 mb - 0.00 in0.0 mm 0.00 in0.0 mm
03:20 AM 28.5°F-1.9°C 14.8°F-9.6°C 56% 5.8 mph W9.3 kmh W 9.2 mph14.8 kmh 29.97 in1014.9 mb - 0.00 in0.0 mm 0.00 in0.0 mm
03:30 AM 28.2°F-2.1°C 14.9°F-9.5°C 57% 6.9 mph W11.1 kmh W 10.4 mph16.7 kmh 29.97 in1014.9 mb - 0.00 in0.0 mm 0.00 in0.0 mm
03:40 AM 28.2°F-2.1°C 14.9°F-9.5°C 57% 8.1 mph WNW13.0 kmh WNW 11.5 mph18.5 kmh 29.97 in1014.9 mb - 0.00 in0.0 mm 0.00 in0.0 mm
03:50 AM 28.1°F-2.2°C 14.4°F-9.8°C 56% 8.1 mph NW13.0 kmh NW 12.7 mph20.4 kmh 29.97 in1014.9 mb - 0.00 in0.0 mm 0.00 in0.0 mm
04:00 AM 28.1°F-2.2°C 14.4°F-9.8°C 56% 10.4 mph WNW16.7 kmh WNW 13.8 mph22.2 kmh 29.97 in1014.9 mb - 0.00 in0.0 mm 0.00 in0.0 mm
04:10 AM 28.1°F-2.2°C 14.4°F-9.8°C 56% 6.9 mph WNW11.1 kmh WNW 8.1 mph13.0 kmh 29.97 in1014.9 mb - 0.00 in0.0 mm 0.00 in0.0 mm
04:20 AM 28.1°F-2.2°C 14.0°F-10.0°C 55% 9.2 mph W14.8 kmh W 11.5 mph18.5 kmh 29.96 in1014.6 mb - 0.00 in0.0 mm 0.00 in0.0 mm
04:30 AM 28.0°F-2.2°C 14.3°F-9.8°C 56% 5.8 mph W9.3 kmh W 6.9 mph11.1 kmh 29.96 in1014.6 mb - 0.00 in0.0 mm 0.00 in0.0 mm
04:40 AM 27.6°F-2.4°C 14.4°F-9.8°C 57% 5.8 mph WNW9.3 kmh WNW 6.9 mph11.1 kmh 29.97 in1014.9 mb - 0.00 in0.0 mm 0.00 in0.0 mm
04:50 AM 27.4°F-2.6°C 14.5°F-9.7°C 58% 4.6 mph WNW7.4 kmh WNW 8.1 mph13.0 kmh 29.96 in1014.6 mb - 0.00 in0.0 mm 0.00 in0.0 mm
05:00 AM 27.2°F-2.7°C 14.0°F-10.0°C 57% 5.8 mph W9.3 kmh W 6.9 mph11.1 kmh 29.96 in1014.6 mb - 0.00 in0.0 mm 0.00 in0.0 mm
05:10 AM 27.1°F-2.7°C 14.3°F-9.8°C 58% 4.6 mph W7.4 kmh W 6.9 mph11.1 kmh 29.96 in1014.6 mb - 0.00 in0.0 mm 0.00 in0.0 mm
05:20 AM 26.9°F-2.8°C 14.5°F-9.7°C 59% 5.8 mph W9.3 kmh W 6.9 mph11.1 kmh 29.95 in1014.2 mb - 0.00 in0.0 mm 0.00 in0.0 mm
05:30 AM 26.9°F-2.8°C 13.7°F-10.2°C 57% 10.4 mph W16.7 kmh W 12.7 mph20.4 kmh 29.96 in1014.6 mb - 0.00 in0.0 mm 0.00 in0.0 mm
05:40 AM 27.0°F-2.8°C 13.8°F-10.1°C 57% 8.1 mph W13.0 kmh W 10.4 mph16.7 kmh 29.96 in1014.6 mb - 0.00 in0.0 mm 0.00 in0.0 mm
05:50 AM 26.9°F-2.8°C 13.7°F-10.2°C 57% 5.8 mph W9.3 kmh W 8.1 mph13.0 kmh 29.95 in1014.2 mb - 0.00 in0.0 mm 0.00 in0.0 mm
06:00 AM 27.0°F-2.8°C 13.4°F-10.3°C 56% 4.6 mph NW7.4 kmh NW 5.8 mph9.3 kmh 29.96 in1014.6 mb - 0.00 in0.0 mm 0.00 in0.0 mm
06:10 AM 26.9°F-2.8°C 13.3°F-10.4°C 56% 4.6 mph W7.4 kmh W 8.1 mph13.0 kmh 29.96 in1014.6 mb - 0.00 in0.0 mm 0.00 in0.0 mm
06:20 AM 26.8°F-2.9°C 13.2°F-10.4°C 56% 2.3 mph W3.7 kmh W 3.5 mph5.6 kmh 29.96 in1014.6 mb - 0.00 in0.0 mm 0.00 in0.0 mm
06:30 AM 26.6°F-3.0°C 13.0°F-10.6°C 56% 8.1 mph W13.0 kmh W 11.5 mph18.5 kmh 29.96 in1014.6 mb - 0.00 in0.0 mm 0.00 in0.0 mm
06:40 AM 26.7°F-2.9°C 13.1°F-10.5°C 56% 5.8 mph W9.3 kmh W 8.1 mph13.0 kmh 29.96 in1014.6 mb - 0.00 in0.0 mm 0.00 in0.0 mm
06:50 AM 26.6°F-3.0°C 12.6°F-10.8°C 55% 4.6 mph NW7.4 kmh NW 4.6 mph7.4 kmh 29.95 in1014.2 mb - 0.00 in0.0 mm 0.00 in0.0 mm
07:00 AM 26.6°F-3.0°C 12.6°F-10.8°C 55% 3.5 mph WNW5.6 kmh WNW 9.2 mph14.8 kmh 29.96 in1014.6 mb - 0.00 in0.0 mm 0.00 in0.0 mm
07:10 AM 26.6°F-3.0°C 13.0°F-10.6°C 56% 4.6 mph W7.4 kmh W 6.9 mph11.1 kmh 29.96 in1014.6 mb - 0.00 in0.0 mm 0.00 in0.0 mm
07:20 AM 26.4°F-3.1°C 12.8°F-10.7°C 56% 4.6 mph WNW7.4 kmh WNW 8.1 mph13.0 kmh 29.96 in1014.6 mb - 0.00 in0.0 mm 0.00 in0.0 mm
07:30 AM 26.2°F-3.2°C 13.0°F-10.6°C 57% 5.8 mph W9.3 kmh W 6.9 mph11.1 kmh 29.96 in1014.6 mb - 0.00 in0.0 mm 0.00 in0.0 mm
07:40 AM 26.1°F-3.3°C 12.9°F-10.6°C 57% 4.6 mph W7.4 kmh W 6.9 mph11.1 kmh 29.96 in1014.6 mb - 0.00 in0.0 mm 0.00 in0.0 mm
07:50 AM 26.4°F-3.1°C 13.6°F-10.2°C 58% 3.5 mph W5.6 kmh W 3.5 mph5.6 kmh 29.96 in1014.6 mb - 0.00 in0.0 mm 0.00 in0.0 mm
08:00 AM 26.9°F-2.8°C 13.7°F-10.2°C 57% 5.8 mph WSW9.3 kmh WSW 8.1 mph13.0 kmh 29.95 in1014.2 mb - 0.00 in0.0 mm 0.00 in0.0 mm
08:10 AM 27.5°F-2.5°C 14.3°F-9.8°C 57% 5.8 mph W9.3 kmh W 8.1 mph13.0 kmh 29.95 in1014.2 mb - 0.00 in0.0 mm 0.00 in0.0 mm
08:20 AM 28.3°F-2.1°C 14.1°F-9.9°C 55% 3.5 mph WNW5.6 kmh WNW 4.6 mph7.4 kmh 29.95 in1014.2 mb - 0.00 in0.0 mm 0.00 in0.0 mm
08:30 AM 28.9°F-1.7°C 15.1°F-9.4°C 56% 4.6 mph W7.4 kmh W 6.9 mph11.1 kmh 29.95 in1014.2 mb - 0.00 in0.0 mm 0.00 in0.0 mm
08:40 AM 29.5°F-1.4°C 14.1°F-9.9°C 52% 5.8 mph WNW9.3 kmh WNW 6.9 mph11.1 kmh 29.95 in1014.2 mb - 0.00 in0.0 mm 0.00 in0.0 mm
08:50 AM 30.1°F-1.1°C 14.6°F-9.7°C 52% 4.6 mph W7.4 kmh W 6.9 mph11.1 kmh 29.94 in1013.9 mb - 0.00 in0.0 mm 0.00 in0.0 mm
09:00 AM 30.8°F-0.7°C 15.2°F-9.3°C 52% 5.8 mph W9.3 kmh W 6.9 mph11.1 kmh 29.94 in1013.9 mb - 0.00 in0.0 mm 0.00 in0.0 mm
09:10 AM 31.4°F-0.3°C 14.9°F-9.5°C 50% 8.1 mph W13.0 kmh W 9.2 mph14.8 kmh 29.93 in1013.5 mb - 0.00 in0.0 mm 0.00 in0.0 mm
09:20 AM 32.0°F0.0°C 15.0°F-9.4°C 49% 8.1 mph WNW13.0 kmh WNW 11.5 mph18.5 kmh 29.92 in1013.2 mb - 0.00 in0.0 mm 0.00 in0.0 mm
09:30 AM 32.6°F0.3°C 15.5°F-9.2°C 49% 8.1 mph W13.0 kmh W 10.4 mph16.7 kmh 29.91 in1012.9 mb - 0.00 in0.0 mm 0.00 in0.0 mm
09:40 AM 33.2°F0.7°C 15.6°F-9.1°C 48% 5.8 mph W9.3 kmh W 8.1 mph13.0 kmh 29.91 in1012.9 mb - 0.00 in0.0 mm 0.00 in0.0 mm
09:50 AM 34.1°F1.2°C 16.9°F-8.4°C 49% 6.9 mph WNW11.1 kmh WNW 8.1 mph13.0 kmh 29.91 in1012.9 mb - 0.00 in0.0 mm 0.00 in0.0 mm
10:00 AM 35.0°F1.7°C 18.7°F-7.4°C 51% 8.1 mph WNW13.0 kmh WNW 11.5 mph18.5 kmh 29.90 in1012.5 mb - 0.00 in0.0 mm 0.00 in0.0 mm
10:10 AM 35.8°F2.1°C 18.0°F-7.8°C 48% 6.9 mph WNW11.1 kmh WNW 11.5 mph18.5 kmh 29.90 in1012.5 mb - 0.00 in0.0 mm 0.00 in0.0 mm
10:20 AM 36.5°F2.5°C 18.1°F-7.7°C 47% 8.1 mph WSW13.0 kmh WSW 11.5 mph18.5 kmh 29.90 in1012.5 mb - 0.00 in0.0 mm 0.00 in0.0 mm
10:30 AM 36.9°F2.7°C 17.5°F-8.1°C 45% 8.1 mph WSW13.0 kmh WSW 9.2 mph14.8 kmh 29.89 in1012.2 mb - 0.00 in0.0 mm 0.00 in0.0 mm
10:40 AM 37.2°F2.9°C 17.3°F-8.2°C 44% 9.2 mph WSW14.8 kmh WSW 12.7 mph20.4 kmh 29.89 in1012.2 mb - 0.00 in0.0 mm 0.00 in0.0 mm
10:50 AM 38.0°F3.3°C 19.5°F-6.9°C 47% 8.1 mph WSW13.0 kmh WSW 11.5 mph18.5 kmh 29.89 in1012.2 mb - 0.00 in0.0 mm 0.00 in0.0 mm
11:00 AM 38.7°F3.7°C 18.1°F-7.7°C 43% 10.4 mph WSW16.7 kmh WSW 12.7 mph20.4 kmh 29.89 in1012.2 mb - 0.00 in0.0 mm 0.00 in0.0 mm
11:10 AM 39.1°F3.9°C 17.9°F-7.8°C 42% 12.7 mph WSW20.4 kmh WSW 15.0 mph24.1 kmh 29.89 in1012.2 mb - 0.00 in0.0 mm 0.00 in0.0 mm
11:20 AM 39.1°F3.9°C 17.4°F-8.1°C 41% 10.4 mph W16.7 kmh W 11.5 mph18.5 kmh 29.88 in1011.9 mb - 0.00 in0.0 mm 0.00 in0.0 mm
11:30 AM 40.0°F4.4°C 19.3°F-7.1°C 43% 9.2 mph NW14.8 kmh NW 12.7 mph20.4 kmh 29.87 in1011.5 mb - 0.00 in0.0 mm 0.00 in0.0 mm
11:40 AM 40.9°F4.9°C 18.4°F-7.6°C 40% 11.5 mph WSW18.5 kmh WSW 13.8 mph22.2 kmh 29.87 in1011.5 mb - 0.00 in0.0 mm 0.00 in0.0 mm
11:50 AM 40.9°F4.9°C 17.8°F-7.9°C 39% 13.8 mph W22.2 kmh W 15.0 mph24.1 kmh 29.87 in1011.5 mb - 0.00 in0.0 mm 0.00 in0.0 mm
12:00 PM 40.7°F4.8°C 18.8°F-7.3°C 41% 9.2 mph W14.8 kmh W 11.5 mph18.5 kmh 29.86 in1011.2 mb - 0.00 in0.0 mm 0.00 in0.0 mm
12:10 PM 41.4°F5.2°C 18.9°F-7.3°C 40% 8.1 mph NW13.0 kmh NW 12.7 mph20.4 kmh 29.86 in1011.2 mb - 0.00 in0.0 mm 0.00 in0.0 mm
12:20 PM 42.3°F5.7°C 20.8°F-6.2°C 42% 10.4 mph W16.7 kmh W 13.8 mph22.2 kmh 29.86 in1011.2 mb - 0.00 in0.0 mm 0.00 in0.0 mm
12:30 PM 42.6°F5.9°C 20.5°F-6.4°C 41% 10.4 mph WSW16.7 kmh WSW 17.3 mph27.8 kmh 29.85 in1010.8 mb - 0.00 in0.0 mm 0.00 in0.0 mm
12:40 PM 42.5°F5.8°C 21.0°F-6.1°C 42% 12.7 mph WSW20.4 kmh WSW 16.1 mph25.9 kmh 29.84 in1010.5 mb - 0.00 in0.0 mm 0.00 in0.0 mm
12:50 PM 42.5°F5.8°C 21.0°F-6.1°C 42% 10.4 mph WSW16.7 kmh WSW 18.4 mph29.6 kmh 29.84 in1010.5 mb - 0.00 in0.0 mm 0.00 in0.0 mm
01:00 PM 42.9°F6.1°C 20.8°F-6.2°C 41% 16.1 mph WSW25.9 kmh WSW 18.4 mph29.6 kmh 29.84 in1010.5 mb - 0.00 in0.0 mm 0.00 in0.0 mm
01:10 PM 43.4°F6.3°C 21.8°F-5.7°C 42% 11.5 mph WSW18.5 kmh WSW 15.0 mph24.1 kmh 29.83 in1010.2 mb - 0.00 in0.0 mm 0.00 in0.0 mm
01:20 PM 43.8°F6.6°C 21.0°F-6.1°C 40% 13.8 mph W22.2 kmh W 15.0 mph24.1 kmh 29.83 in1010.2 mb - 0.00 in0.0 mm 0.00 in0.0 mm
01:30 PM 44.2°F6.8°C 22.0°F-5.6°C 41% 15.0 mph WSW24.1 kmh WSW 26.5 mph42.6 kmh 29.83 in1010.2 mb - 0.00 in0.0 mm 0.00 in0.0 mm
01:40 PM 44.4°F6.9°C 20.9°F-6.2°C 39% 11.5 mph WSW18.5 kmh WSW 17.3 mph27.8 kmh 29.82 in1009.8 mb - 0.00 in0.0 mm 0.00 in0.0 mm
01:50 PM 44.1°F6.7°C 19.5°F-6.9°C 37% 12.7 mph W20.4 kmh W 23.0 mph37.0 kmh 29.82 in1009.8 mb - 0.00 in0.0 mm 0.00 in0.0 mm
02:00 PM 43.8°F6.6°C 19.2°F-7.1°C 37% 16.1 mph WSW25.9 kmh WSW 19.6 mph31.5 kmh 29.81 in1009.5 mb - 0.00 in0.0 mm 0.00 in0.0 mm
02:10 PM 43.4°F6.3°C 18.8°F-7.3°C 37% 11.5 mph WSW18.5 kmh WSW 12.7 mph20.4 kmh 29.81 in1009.5 mb - 0.00 in0.0 mm 0.00 in0.0 mm
02:20 PM 43.5°F6.4°C 20.7°F-6.3°C 40% 10.4 mph WSW16.7 kmh WSW 15.0 mph24.1 kmh 29.80 in1009.1 mb - 0.00 in0.0 mm 0.00 in0.0 mm
02:30 PM 43.5°F6.4°C 21.3°F-5.9°C 41% 8.1 mph W13.0 kmh W 12.7 mph20.4 kmh 29.79 in1008.8 mb - 0.00 in0.0 mm 0.00 in0.0 mm
02:40 PM 43.6°F6.4°C 20.8°F-6.2°C 40% 8.1 mph WSW13.0 kmh WSW 10.4 mph16.7 kmh 29.78 in1008.5 mb - 0.00 in0.0 mm 0.00 in0.0 mm
02:50 PM 44.1°F6.7°C 19.5°F-6.9°C 37% 12.7 mph WSW20.4 kmh WSW 15.0 mph24.1 kmh 29.77 in1008.1 mb - 0.00 in0.0 mm 0.00 in0.0 mm
03:00 PM 44.3°F6.8°C 21.5°F-5.8°C 40% 10.4 mph W16.7 kmh W 12.7 mph20.4 kmh 29.77 in1008.1 mb - 0.00 in0.0 mm 0.00 in0.0 mm
03:10 PM 44.7°F7.1°C 21.2°F-6.0°C 39% 8.1 mph WSW13.0 kmh WSW 11.5 mph18.5 kmh 29.76 in1007.8 mb - 0.00 in0.0 mm 0.00 in0.0 mm
03:20 PM 44.8°F7.1°C 22.5°F-5.3°C 41% 5.8 mph W9.3 kmh W 6.9 mph11.1 kmh 29.76 in1007.8 mb - 0.00 in0.0 mm 0.00 in0.0 mm
03:30 PM 45.0°F7.2°C 20.9°F-6.2°C 38% 9.2 mph SW14.8 kmh SW 11.5 mph18.5 kmh 29.75 in1007.5 mb - 0.00 in0.0 mm 0.00 in0.0 mm
03:40 PM 45.5°F7.5°C 21.9°F-5.6°C 39% 9.2 mph WSW14.8 kmh WSW 16.1 mph25.9 kmh 29.75 in1007.5 mb - 0.00 in0.0 mm 0.00 in0.0 mm
03:50 PM 45.8°F7.7°C 22.2°F-5.4°C 39% 11.5 mph WSW18.5 kmh WSW 17.3 mph27.8 kmh 29.74 in1007.1 mb - 0.00 in0.0 mm 0.00 in0.0 mm
04:00 PM 46.0°F7.8°C 21.8°F-5.7°C 38% 8.1 mph W13.0 kmh W 13.8 mph22.2 kmh 29.74 in1007.1 mb - 0.00 in0.0 mm 0.00 in0.0 mm
04:10 PM 46.3°F7.9°C 23.2°F-4.9°C 40% 9.2 mph WSW14.8 kmh WSW 16.1 mph25.9 kmh 29.74 in1007.1 mb - 0.00 in0.0 mm 0.00 in0.0 mm
04:20 PM 47.2°F8.4°C 22.8°F-5.1°C 38% 12.7 mph W20.4 kmh W 16.1 mph25.9 kmh 29.73 in1006.8 mb - 0.00 in0.0 mm 0.00 in0.0 mm
04:30 PM 46.5°F8.1°C 21.6°F-5.8°C 37% 8.1 mph WSW13.0 kmh WSW 12.7 mph20.4 kmh 29.73 in1006.8 mb - 0.00 in0.0 mm 0.00 in0.0 mm
04:40 PM 45.8°F7.7°C 21.0°F-6.1°C 37% 9.2 mph WSW14.8 kmh WSW 11.5 mph18.5 kmh 29.73 in1006.8 mb - 0.00 in0.0 mm 0.00 in0.0 mm
04:50 PM 45.6°F7.6°C 22.6°F-5.2°C 40% 9.2 mph W14.8 kmh W 11.5 mph18.5 kmh 29.73 in1006.8 mb - 0.00 in0.0 mm 0.00 in0.0 mm
05:00 PM 45.6°F7.6°C 21.4°F-5.9°C 38% 8.1 mph WSW13.0 kmh WSW 9.2 mph14.8 kmh 29.73 in1006.8 mb - 0.00 in0.0 mm 0.00 in0.0 mm
05:10 PM 46.2°F7.9°C 23.7°F-4.6°C 41% 8.1 mph W13.0 kmh W 11.5 mph18.5 kmh 29.73 in1006.8 mb - 0.00 in0.0 mm 0.00 in0.0 mm
05:20 PM 46.1°F7.8°C 21.9°F-5.6°C 38% 11.5 mph WSW18.5 kmh WSW 16.1 mph25.9 kmh 29.73 in1006.8 mb - 0.00 in0.0 mm 0.00 in0.0 mm
05:30 PM 45.8°F7.7°C 23.4°F-4.8°C 41% 8.1 mph WSW13.0 kmh WSW 10.4 mph16.7 kmh 29.73 in1006.8 mb - 0.00 in0.0 mm 0.00 in0.0 mm
05:40 PM 45.7°F7.6°C 22.1°F-5.5°C 39% 8.1 mph WSW13.0 kmh WSW 11.5 mph18.5 kmh 29.73 in1006.8 mb - 0.00 in0.0 mm 0.00 in0.0 mm
05:50 PM 45.6°F7.6°C 22.0°F-5.6°C 39% 10.4 mph W16.7 kmh W 13.8 mph22.2 kmh 29.73 in1006.8 mb - 0.00 in0.0 mm 0.00 in0.0 mm
06:00 PM 45.4°F7.4°C 22.5°F-5.3°C 40% 8.1 mph WSW13.0 kmh WSW 12.7 mph20.4 kmh 29.73 in1006.8 mb - 0.00 in0.0 mm 0.00 in0.0 mm
06:10 PM 45.4°F7.4°C 22.5°F-5.3°C 40% 10.4 mph W16.7 kmh W 11.5 mph18.5 kmh 29.73 in1006.8 mb - 0.00 in0.0 mm 0.00 in0.0 mm
06:20 PM 45.1°F7.3°C 22.8°F-5.1°C 41% 5.8 mph W9.3 kmh W 8.1 mph13.0 kmh 29.73 in1006.8 mb - 0.00 in0.0 mm 0.00 in0.0 mm
06:30 PM 44.7°F7.1°C 22.4°F-5.3°C 41% 8.1 mph W13.0 kmh W 9.2 mph14.8 kmh 29.74 in1007.1 mb - 0.00 in0.0 mm 0.00 in0.0 mm
06:40 PM 44.6°F7.0°C 22.9°F-5.1°C 42% 4.6 mph W7.4 kmh W 5.8 mph9.3 kmh 29.74 in1007.1 mb - 0.00 in0.0 mm 0.00 in0.0 mm
06:50 PM 44.3°F6.8°C 19.0°F-7.2°C 36% 6.9 mph W11.1 kmh W 11.5 mph18.5 kmh 29.74 in1007.1 mb - 0.00 in0.0 mm 0.00 in0.0 mm
07:00 PM 43.5°F6.4°C 18.9°F-7.3°C 37% 8.1 mph W13.0 kmh W 11.5 mph18.5 kmh 29.74 in1007.1 mb - 0.00 in0.0 mm 0.00 in0.0 mm
07:10 PM 42.9°F6.1°C 19.0°F-7.2°C 38% 4.6 mph W7.4 kmh W 8.1 mph13.0 kmh 29.74 in1007.1 mb - 0.00 in0.0 mm 0.00 in0.0 mm
07:20 PM 42.3°F5.7°C 18.4°F-7.6°C 38% 5.8 mph W9.3 kmh W 8.1 mph13.0 kmh 29.74 in1007.1 mb - 0.00 in0.0 mm 0.00 in0.0 mm
07:30 PM 41.6°F5.3°C 18.4°F-7.6°C 39% 5.8 mph W9.3 kmh W 6.9 mph11.1 kmh 29.74 in1007.1 mb - 0.00 in0.0 mm 0.00 in0.0 mm
07:40 PM 41.0°F5.0°C 19.1°F-7.2°C 41% 5.8 mph W9.3 kmh W 6.9 mph11.1 kmh 29.74 in1007.1 mb - 0.00 in0.0 mm 0.00 in0.0 mm
07:50 PM 40.5°F4.7°C 19.2°F-7.1°C 42% 3.5 mph WNW5.6 kmh WNW 5.8 mph9.3 kmh 29.74 in1007.1 mb - 0.00 in0.0 mm 0.00 in0.0 mm
08:00 PM 39.8°F4.3°C 19.6°F-6.9°C 44% 4.6 mph W7.4 kmh W 5.8 mph9.3 kmh 29.74 in1007.1 mb - 0.00 in0.0 mm 0.00 in0.0 mm
08:10 PM 39.3°F4.1°C 19.2°F-7.1°C 44% 4.6 mph WSW7.4 kmh WSW 5.8 mph9.3 kmh 29.75 in1007.5 mb - 0.00 in0.0 mm 0.00 in0.0 mm
08:20 PM 38.8°F3.8°C 18.7°F-7.4°C 44% 4.6 mph WSW7.4 kmh WSW 6.9 mph11.1 kmh 29.75 in1007.5 mb - 0.00 in0.0 mm 0.00 in0.0 mm
08:30 PM 38.3°F3.5°C 19.3°F-7.1°C 46% 3.5 mph WSW5.6 kmh WSW 8.1 mph13.0 kmh 29.75 in1007.5 mb - 0.00 in0.0 mm 0.00 in0.0 mm
08:40 PM 37.8°F3.2°C 19.9°F-6.7°C 48% 4.6 mph WSW7.4 kmh WSW 5.8 mph9.3 kmh 29.75 in1007.5 mb - 0.00 in0.0 mm 0.00 in0.0 mm
08:50 PM 37.7°F3.2°C 20.2°F-6.6°C 49% 4.6 mph WSW7.4 kmh WSW 5.8 mph9.3 kmh 29.76 in1007.8 mb - 0.00 in0.0 mm 0.00 in0.0 mm
09:00 PM 37.7°F3.2°C 20.2°F-6.6°C 49% 8.1 mph WSW13.0 kmh WSW 10.4 mph16.7 kmh 29.76 in1007.8 mb - 0.00 in0.0 mm 0.00 in0.0 mm
09:10 PM 37.7°F3.2°C 20.2°F-6.6°C 49% 5.8 mph WSW9.3 kmh WSW 8.1 mph13.0 kmh 29.76 in1007.8 mb - 0.00 in0.0 mm 0.00 in0.0 mm
09:20 PM 37.4°F3.0°C 20.4°F-6.4°C 50% 5.8 mph WSW9.3 kmh WSW 9.2 mph14.8 kmh 29.76 in1007.8 mb - 0.00 in0.0 mm 0.00 in0.0 mm
09:30 PM 37.0°F2.8°C 20.5°F-6.4°C 51% 4.6 mph WSW7.4 kmh WSW 8.1 mph13.0 kmh 29.77 in1008.1 mb - 0.00 in0.0 mm 0.00 in0.0 mm
09:40 PM 36.5°F2.5°C 21.0°F-6.1°C 53% 4.6 mph W7.4 kmh W 6.9 mph11.1 kmh 29.77 in1008.1 mb - 0.00 in0.0 mm 0.00 in0.0 mm
09:50 PM 35.9°F2.2°C 20.9°F-6.2°C 54% 1.2 mph WNW1.9 kmh WNW 2.3 mph3.7 kmh 29.78 in1008.5 mb - 0.00 in0.0 mm 0.00 in0.0 mm
10:00 PM 35.1°F1.7°C 21.0°F-6.1°C 56% 3.5 mph W5.6 kmh W 3.5 mph5.6 kmh 29.78 in1008.5 mb - 0.00 in0.0 mm 0.00 in0.0 mm
10:10 PM 34.2°F1.2°C 20.9°F-6.2°C 58% 6.9 mph W11.1 kmh W 8.1 mph13.0 kmh 29.78 in1008.5 mb - 0.00 in0.0 mm 0.00 in0.0 mm
10:20 PM 33.9°F1.1°C 21.1°F-6.1°C 59% 2.3 mph WNW3.7 kmh WNW 3.5 mph5.6 kmh 29.79 in1008.8 mb - 0.00 in0.0 mm 0.00 in0.0 mm
10:30 PM 33.7°F0.9°C 20.9°F-6.2°C 59% 4.6 mph WNW7.4 kmh WNW 6.9 mph11.1 kmh 29.79 in1008.8 mb - 0.00 in0.0 mm 0.00 in0.0 mm
10:40 PM 33.7°F0.9°C 20.9°F-6.2°C 59% 4.6 mph W7.4 kmh W 5.8 mph9.3 kmh 29.80 in1009.1 mb - 0.00 in0.0 mm 0.00 in0.0 mm
10:50 PM 34.1°F1.2°C 21.3°F-5.9°C 59% 5.8 mph W9.3 kmh W 6.9 mph11.1 kmh 29.80 in1009.1 mb - 0.00 in0.0 mm 0.00 in0.0 mm
11:00 PM 34.2°F1.2°C 20.9°F-6.2°C 58% 5.8 mph W9.3 kmh W 8.1 mph13.0 kmh 29.79 in1008.8 mb - 0.00 in0.0 mm 0.00 in0.0 mm
11:10 PM 34.5°F1.4°C 20.8°F-6.2°C 57% 5.8 mph W9.3 kmh W 5.8 mph9.3 kmh 29.79 in1008.8 mb - 0.00 in0.0 mm 0.00 in0.0 mm
11:20 PM 34.6°F1.4°C 20.5°F-6.4°C 56% 1.2 mph W1.9 kmh W 3.5 mph5.6 kmh 29.80 in1009.1 mb - 0.00 in0.0 mm 0.00 in0.0 mm
11:30 PM 34.0°F1.1°C 19.5°F-6.9°C 55% Calm Calm 1.2 mph1.9 kmh 29.80 in1009.1 mb - 0.00 in0.0 mm 0.00 in0.0 mm
11:40 PM 33.6°F0.9°C 19.6°F-6.9°C 56% 3.5 mph SW5.6 kmh SW 3.5 mph5.6 kmh 29.80 in1009.1 mb - 0.00 in0.0 mm 0.00 in0.0 mm
11:50 PM 32.4°F0.2°C 20.1°F-6.6°C 60% 1.2 mph NE1.9 kmh NE 2.3 mph3.7 kmh 29.80 in1009.1 mb - 0.00 in0.0 mm 0.00 in0.0 mm